Parma — V2OZ9 — position and weather

sailwx.info

Track history (hours):
 
Tides and Currents Weather Stations Pressure Air Temp Water Temp Dewpoint Dewpoint Depression Visibility Wind Speed Wind Dir Waves Ship Positions

Parma

Last reported at 2014-Oct-24 16:29 UTC. Time now 2014-Oct-25 06:22 UTC.
Position N 51°55' W 007°47'.

MMSI: 279073176.

Date/timePositionNaut miles runAvg speedWind from/ knotsBaromVisibWave heightAir tempDewpointWater temp
2014-Oct-24 16:29N 51°55' W 007°47'0 0.0
2014-Oct-24 14:20N 51°55' W 007°47'0 0.0
2014-Oct-24 12:08N 51°55' W 007°47'0 0.0
2014-Oct-24 10:23N 51°55' W 007°47'0 0.0
2014-Oct-24 09:17N 51°55' W 007°47'3 4.2
2014-Oct-24 08:32N 51°56' W 007°42'1010.2
2014-Oct-24 07:33N 51°57' W 007°26'9 9.4
2014-Oct-24 06:33N 51°58' W 007°11'9 9.2
2014-Oct-24 05:33N 51°60' W 006°56'11 9.4
2014-Oct-24 04:26N 52°01' W 006°39'11 9.6
2014-Oct-24 03:15N 52°05' W 006°22'1011.2
2014-Oct-24 02:21N 52°09' W 006°07'1012.4
2014-Oct-24 01:33N 52°18' W 006°02'95 9.3
2014-Oct-23 15:18N 53°53' W 005°59'7 9.6
2014-Oct-23 14:32N 54°00' W 006°03'  
2014-Oct-16 15:27N 54°02' W 006°07'227 8.3
2014-Oct-15 12:06N 50°15' W 006°31'  
Track history (hours):
 
Tides and Currents Weather Stations Pressure Air Temp Water Temp Dewpoint Dewpoint Depression Visibility Wind Speed Wind Dir Waves Ship Positions

Parma

Last reported at 2014-Oct-24 16:29 UTC. Time now 2014-Oct-25 06:22 UTC.
Position N 51°55' W 007°47'.

MMSI: 279073176.

Date/timePositionNaut miles runAvg speedWind from/ knotsBaromVisibWave heightAir tempDewpointWater temp
2014-Oct-24 16:29N 51°55' W 007°47'0 0.0
2014-Oct-24 14:20N 51°55' W 007°47'0 0.0
2014-Oct-24 12:08N 51°55' W 007°47'0 0.0
2014-Oct-24 10:23N 51°55' W 007°47'0 0.0
2014-Oct-24 09:17N 51°55' W 007°47'3 4.2
2014-Oct-24 08:32N 51°56' W 007°42'1010.2
2014-Oct-24 07:33N 51°57' W 007°26'9 9.4
2014-Oct-24 06:33N 51°58' W 007°11'9 9.2
2014-Oct-24 05:33N 51°60' W 006°56'11 9.4
2014-Oct-24 04:26N 52°01' W 006°39'11 9.6
2014-Oct-24 03:15N 52°05' W 006°22'1011.2
2014-Oct-24 02:21N 52°09' W 006°07'1012.4
2014-Oct-24 01:33N 52°18' W 006°02'95 9.3
2014-Oct-23 15:18N 53°53' W 005°59'7 9.6
2014-Oct-23 14:32N 54°00' W 006°03'  
2014-Oct-16 15:27N 54°02' W 006°07'227 8.3
2014-Oct-15 12:06N 50°15' W 006°31'  

Dump ship's entire track history